createdAt,value
2023-01-19T00:00:38.230Z,3.45
2023-01-19T00:02:09.787Z,3.46
2023-01-19T00:03:42.205Z,3.46
2023-01-19T00:05:15.140Z,3.46
2023-01-19T00:06:46.646Z,3.45
2023-01-19T00:08:18.675Z,3.48
2023-01-19T00:09:50.121Z,3.48
2023-01-19T00:11:21.624Z,3.52
2023-01-19T00:12:53.106Z,3.50
2023-01-19T00:14:24.528Z,3.52
2023-01-19T00:15:56.153Z,3.50
2023-01-19T00:17:27.636Z,3.52
2023-01-19T00:18:59.174Z,3.49
2023-01-19T00:20:32.824Z,3.48
2023-01-19T00:22:05.944Z,3.47
2023-01-19T00:23:37.466Z,3.48
2023-01-19T00:25:09.454Z,3.46
2023-01-19T00:26:42.784Z,3.44
2023-01-19T00:28:15.317Z,3.47
2023-01-19T00:29:46.864Z,3.48
2023-01-19T00:31:20.588Z,3.45
2023-01-19T00:32:52.174Z,3.43
2023-01-19T00:34:23.716Z,3.43
2023-01-19T00:35:56.520Z,3.45
2023-01-19T00:37:27.964Z,3.45
2023-01-19T00:38:59.923Z,3.43
2023-01-19T00:40:31.526Z,3.43
2023-01-19T00:42:21.997Z,3.40
2023-01-19T00:43:53.942Z,3.39
2023-01-19T00:45:25.723Z,3.37
2023-01-19T00:46:57.294Z,3.37
2023-01-19T00:48:29.468Z,3.35
2023-01-19T00:50:00.979Z,3.34
2023-01-19T00:51:33.849Z,3.34
2023-01-19T00:53:05.324Z,3.35
2023-01-19T00:54:36.774Z,3.36
2023-01-19T00:56:08.278Z,3.35
2023-01-19T00:57:40.296Z,3.37
2023-01-19T00:59:11.978Z,3.34
2023-01-19T01:00:44.684Z,3.32
2023-01-19T01:02:16.334Z,3.34
2023-01-19T01:03:47.884Z,3.33
2023-01-19T01:05:20.040Z,3.30
2023-01-19T01:06:52.901Z,3.31
2023-01-19T01:08:24.404Z,3.30
2023-01-19T01:09:56.684Z,3.30
2023-01-19T01:11:28.197Z,3.31
2023-01-19T01:12:59.719Z,3.32
2023-01-19T01:14:51.155Z,3.32
2023-01-19T01:16:23.130Z,3.31
2023-01-19T01:17:54.766Z,3.32
2023-01-19T01:19:26.260Z,3.32
2023-01-19T01:21:00.755Z,3.33
2023-01-19T01:22:36.300Z,3.35
2023-01-19T01:24:08.558Z,3.34
2023-01-19T01:25:40.128Z,3.36
2023-01-19T01:27:11.887Z,3.43
2023-01-19T01:28:43.429Z,3.47
2023-01-19T01:30:15.484Z,3.49
2023-01-19T01:31:46.955Z,3.51
2023-01-19T01:33:40.737Z,3.55
2023-01-19T01:35:10.191Z,3.57
2023-01-19T01:36:41.728Z,3.61
2023-01-19T01:38:15.311Z,3.60
2023-01-19T01:39:46.793Z,3.62
2023-01-19T01:41:18.533Z,3.59
2023-01-19T01:42:53.352Z,3.62
2023-01-19T01:44:58.166Z,3.62
2023-01-19T01:46:30.360Z,3.60
2023-01-19T01:48:05.760Z,3.62
2023-01-19T01:49:37.328Z,3.63
2023-01-19T01:51:25.948Z,3.62
2023-01-19T01:53:07.406Z,3.63
2023-01-19T01:54:42.257Z,3.62
2023-01-19T01:56:16.297Z,3.61
2023-01-19T01:57:50.132Z,3.59
2023-01-19T01:59:32.477Z,3.57
2023-01-19T02:01:22.997Z,3.59
2023-01-19T02:03:00.160Z,3.60
2023-01-19T02:04:31.990Z,3.58
2023-01-19T02:06:07.115Z,3.54
2023-01-19T02:08:01.943Z,3.56
2023-01-19T02:09:54.619Z,3.55
2023-01-19T02:11:46.524Z,3.55
2023-01-19T02:13:19.594Z,3.52
2023-01-19T02:14:51.039Z,3.53
2023-01-19T02:16:22.634Z,3.55
2023-01-19T02:17:54.160Z,3.55
2023-01-19T02:19:30.771Z,3.56
2023-01-19T02:21:08.469Z,3.55
2023-01-19T02:22:44.685Z,3.53
2023-01-19T02:24:18.196Z,3.51
2023-01-19T02:25:49.825Z,3.50
2023-01-19T02:27:21.324Z,3.52
2023-01-19T02:28:57.382Z,3.52
2023-01-19T02:30:29.316Z,3.51
2023-01-19T02:32:02.550Z,3.52
2023-01-19T02:33:34.148Z,3.51
2023-01-19T02:35:06.323Z,3.50
2023-01-19T02:36:40.978Z,3.48
2023-01-19T02:38:14.114Z,3.46
2023-01-19T02:39:50.737Z,3.47
2023-01-19T02:41:24.855Z,3.48
2023-01-19T02:42:58.630Z,3.48
2023-01-19T02:44:31.661Z,3.48
2023-01-19T02:46:03.599Z,3.50
2023-01-19T02:47:38.944Z,3.50
2023-01-19T02:49:10.406Z,3.48
2023-01-19T02:50:46.059Z,3.51
2023-01-19T02:52:18.125Z,3.52
2023-01-19T02:53:56.911Z,3.56
2023-01-19T02:55:31.430Z,3.53
2023-01-19T02:57:11.199Z,3.52
2023-01-19T02:58:44.987Z,3.56
2023-01-19T03:00:21.167Z,3.52
2023-01-19T03:02:01.488Z,3.51
2023-01-19T03:03:35.297Z,3.48
2023-01-19T03:05:15.502Z,3.49
2023-01-19T03:06:50.078Z,3.48
2023-01-19T03:08:27.502Z,3.49
2023-01-19T03:10:02.602Z,3.51
2023-01-19T03:11:38.264Z,3.52
2023-01-19T03:13:12.546Z,3.53
2023-01-19T03:14:47.586Z,3.54
2023-01-19T03:16:22.611Z,3.56
2023-01-19T03:17:56.051Z,3.58
2023-01-19T03:19:28.952Z,3.58
2023-01-19T03:21:03.725Z,3.59
2023-01-19T03:22:35.209Z,3.60
2023-01-19T03:24:08.037Z,3.61
2023-01-19T03:25:41.613Z,3.62
2023-01-19T03:27:17.252Z,3.63
2023-01-19T03:28:49.372Z,3.66
2023-01-19T03:30:22.907Z,3.70
2023-01-19T03:31:56.441Z,3.73
2023-01-19T03:33:29.184Z,3.74
2023-01-19T03:35:02.715Z,3.74
2023-01-19T03:36:35.749Z,3.76
2023-01-19T03:38:09.570Z,3.76
2023-01-19T03:39:41.129Z,3.78
2023-01-19T03:41:15.422Z,3.78
2023-01-19T03:42:50.151Z,3.83
2023-01-19T03:44:22.915Z,3.85
2023-01-19T03:45:55.804Z,3.88
2023-01-19T03:47:28.341Z,3.94
2023-01-19T03:48:59.901Z,3.94
2023-01-19T03:50:31.913Z,3.97
2023-01-19T03:52:03.479Z,4.00
2023-01-19T03:53:35.036Z,4.03
2023-01-19T03:55:06.829Z,4.06
2023-01-19T03:56:38.556Z,4.09
2023-01-19T03:58:11.472Z,4.11
2023-01-19T03:59:43.088Z,4.16
2023-01-19T04:01:15.323Z,4.16
2023-01-19T04:02:49.714Z,4.14
2023-01-19T04:04:21.245Z,4.11
2023-01-19T04:05:52.732Z,4.09
2023-01-19T04:07:24.265Z,4.10
2023-01-19T04:08:55.849Z,4.07
2023-01-19T04:10:27.334Z,4.07
2023-01-19T04:11:58.783Z,4.06
2023-01-19T04:13:31.814Z,4.02
2023-01-19T04:15:03.576Z,4.01
2023-01-19T04:16:35.172Z,4.05
2023-01-19T04:18:06.905Z,4.07
2023-01-19T04:19:38.569Z,4.05
2023-01-19T04:21:10.853Z,4.04
2023-01-19T04:22:42.538Z,4.06
2023-01-19T04:24:14.003Z,4.07
2023-01-19T04:25:45.501Z,4.09
2023-01-19T04:27:17.581Z,4.11
2023-01-19T04:28:50.392Z,4.11
2023-01-19T04:30:22.535Z,4.10
2023-01-19T04:31:54.053Z,4.09
2023-01-19T04:33:26.778Z,4.11
2023-01-19T04:34:58.241Z,4.10
2023-01-19T04:36:29.767Z,4.11
2023-01-19T04:38:01.208Z,4.11
2023-01-19T04:39:35.023Z,4.12
2023-01-19T04:41:06.530Z,4.13
2023-01-19T04:42:38.905Z,4.16
2023-01-19T04:44:11.759Z,4.16
2023-01-19T04:45:44.768Z,4.16
2023-01-19T04:47:16.252Z,4.16
2023-01-19T04:48:47.715Z,4.18
2023-01-19T04:50:19.425Z,4.20
2023-01-19T04:51:53.622Z,4.22
2023-01-19T04:53:25.118Z,4.18
2023-01-19T04:54:56.587Z,4.17
2023-01-19T04:56:28.235Z,4.12
2023-01-19T04:57:59.697Z,4.10
2023-01-19T04:59:32.828Z,4.05
2023-01-19T05:01:07.088Z,4.02
2023-01-19T05:02:38.946Z,3.99
2023-01-19T05:04:10.431Z,3.97
2023-01-19T05:05:41.875Z,3.92
2023-01-19T05:07:13.659Z,3.91
2023-01-19T05:08:45.532Z,3.88
2023-01-19T05:10:17.145Z,3.85
2023-01-19T05:11:48.611Z,3.81
2023-01-19T05:13:20.231Z,3.83
2023-01-19T05:14:53.089Z,3.82
2023-01-19T05:16:24.715Z,3.78
2023-01-19T05:17:57.983Z,3.78
2023-01-19T05:19:29.453Z,3.77
2023-01-19T05:21:01.418Z,3.74
2023-01-19T05:22:32.888Z,3.71
2023-01-19T05:24:04.469Z,3.68
2023-01-19T05:25:35.953Z,3.63
2023-01-19T05:27:07.447Z,3.65
2023-01-19T05:28:39.067Z,3.60
2023-01-19T05:30:13.235Z,3.59
2023-01-19T05:31:44.728Z,3.57
2023-01-19T05:33:16.256Z,3.53
2023-01-19T05:34:47.751Z,3.50
2023-01-19T05:36:19.196Z,3.52
2023-01-19T05:37:50.797Z,3.51
2023-01-19T05:39:22.275Z,3.57
2023-01-19T05:40:56.696Z,3.63
2023-01-19T05:42:28.153Z,3.64
2023-01-19T05:43:59.784Z,3.64
2023-01-19T05:45:32.642Z,3.67
2023-01-19T05:47:04.683Z,3.66
2023-01-19T05:48:36.212Z,3.65
2023-01-19T05:50:08.107Z,3.59
2023-01-19T05:51:40.418Z,3.57
2023-01-19T05:53:11.892Z,3.51
2023-01-19T05:54:43.530Z,3.58
2023-01-19T05:56:14.987Z,3.53
2023-01-19T05:57:46.509Z,3.53
2023-01-19T05:59:23.994Z,3.64
2023-01-19T06:00:57.231Z,3.69
2023-01-19T06:02:30.073Z,3.66
2023-01-19T06:04:01.557Z,3.68
2023-01-19T06:05:33.897Z,3.67
2023-01-19T06:07:06.483Z,3.69
2023-01-19T06:08:37.991Z,3.74
2023-01-19T06:10:10.064Z,3.77
2023-01-19T06:11:41.558Z,3.83
2023-01-19T06:13:13.187Z,3.84
2023-01-19T06:14:44.767Z,3.94
2023-01-19T06:16:17.703Z,3.98
2023-01-19T06:17:49.186Z,4.00
2023-01-19T06:19:20.748Z,3.98
2023-01-19T06:20:52.533Z,4.03
2023-01-19T06:22:24.538Z,4.08
2023-01-19T06:23:56.042Z,4.14
2023-01-19T06:25:27.549Z,4.21
2023-01-19T06:27:00.346Z,4.25
2023-01-19T06:28:31.841Z,4.22
2023-01-19T06:30:03.587Z,4.14
2023-01-19T06:31:36.591Z,4.04
2023-01-19T06:33:08.147Z,4.01
2023-01-19T06:34:43.518Z,3.97
2023-01-19T06:36:15.012Z,3.95
2023-01-19T06:37:46.749Z,3.92
2023-01-19T06:39:18.235Z,3.89
2023-01-19T06:40:54.057Z,3.92
2023-01-19T06:42:25.579Z,3.89
2023-01-19T06:43:57.082Z,3.92
2023-01-19T06:45:28.637Z,3.89
2023-01-19T06:47:15.493Z,3.92
2023-01-19T06:48:48.048Z,4.00
2023-01-19T06:50:19.878Z,4.03
2023-01-19T06:51:51.416Z,4.10
2023-01-19T06:53:23.005Z,4.10
2023-01-19T06:54:54.521Z,4.04
2023-01-19T06:56:28.098Z,4.03
2023-01-19T06:58:00.513Z,4.05
2023-01-19T06:59:32.054Z,4.04
2023-01-19T07:01:04.370Z,4.03
2023-01-19T07:02:37.648Z,4.06
2023-01-19T07:04:10.639Z,4.09
2023-01-19T07:05:42.187Z,4.11
2023-01-19T07:07:13.740Z,4.12
2023-01-19T07:08:45.276Z,4.17
2023-01-19T07:10:16.811Z,4.16
2023-01-19T07:11:49.087Z,4.12
2023-01-19T07:13:21.645Z,4.03
2023-01-19T07:14:53.140Z,4.09
2023-01-19T07:16:24.967Z,4.11
2023-01-19T07:17:58.939Z,4.16
2023-01-19T07:19:31.173Z,4.20
2023-01-19T07:21:05.065Z,4.22
2023-01-19T07:22:36.726Z,4.23
2023-01-19T07:24:08.738Z,4.26
2023-01-19T07:25:40.754Z,4.25
2023-01-19T07:27:12.230Z,4.24
2023-01-19T07:28:43.738Z,4.31
2023-01-19T07:30:18.443Z,4.36
2023-01-19T07:31:50.289Z,4.42
2023-01-19T07:33:24.356Z,4.43
2023-01-19T07:34:55.883Z,4.37
2023-01-19T07:36:27.393Z,4.39
2023-01-19T07:37:58.906Z,4.39
2023-01-19T07:39:31.931Z,4.43
2023-01-19T07:41:04.430Z,4.46
2023-01-19T07:42:36.142Z,4.51
2023-01-19T07:44:08.699Z,4.49
2023-01-19T07:45:40.327Z,4.46
2023-01-19T07:47:12.677Z,4.45
2023-01-19T07:48:47.321Z,4.43
2023-01-19T07:50:21.340Z,4.41
2023-01-19T07:51:52.940Z,4.40
2023-01-19T07:53:24.481Z,4.36
2023-01-19T07:54:55.945Z,4.36
2023-01-19T07:56:29.927Z,4.40
2023-01-19T07:58:05.060Z,4.42
2023-01-19T07:59:36.630Z,4.49
2023-01-19T08:01:08.754Z,4.53
2023-01-19T08:02:41.134Z,4.56
2023-01-19T08:04:14.035Z,4.59
2023-01-19T08:05:49.677Z,4.66
2023-01-19T08:07:21.298Z,4.69
2023-01-19T08:08:53.174Z,4.76
2023-01-19T08:10:28.316Z,4.82
2023-01-19T08:11:59.842Z,4.81
2023-01-19T08:13:31.337Z,4.85
2023-01-19T08:15:03.362Z,4.86
2023-01-19T08:16:34.929Z,4.77
2023-01-19T08:18:06.830Z,4.76
2023-01-19T08:19:41.585Z,4.75
2023-01-19T08:21:13.191Z,4.77
2023-01-19T08:22:47.099Z,4.80
2023-01-19T08:24:21.205Z,4.75
2023-01-19T08:25:52.738Z,4.78
2023-01-19T08:27:24.362Z,4.79
2023-01-19T08:28:56.486Z,4.75
2023-01-19T08:30:28.066Z,4.75
2023-01-19T08:32:02.145Z,4.72
2023-01-19T08:33:33.746Z,4.75
2023-01-19T08:35:07.486Z,4.70
2023-01-19T08:36:39.139Z,4.72
2023-01-19T08:38:10.902Z,4.74
2023-01-19T08:39:42.455Z,4.81
2023-01-19T08:41:16.397Z,4.85
2023-01-19T08:42:47.898Z,4.88
2023-01-19T08:44:19.487Z,4.89
2023-01-19T08:45:51.947Z,4.90
2023-01-19T08:47:23.445Z,4.88
2023-01-19T08:48:55.013Z,4.94
2023-01-19T08:50:28.586Z,4.95
2023-01-19T08:52:00.034Z,5.03
2023-01-19T08:53:31.556Z,5.04
2023-01-19T08:55:03.073Z,5.03
2023-01-19T08:56:34.589Z,5.07
2023-01-19T08:58:06.653Z,5.16
2023-01-19T08:59:38.172Z,5.24
2023-01-19T09:01:10.277Z,5.31
2023-01-19T09:02:42.418Z,5.37
2023-01-19T09:04:13.938Z,5.42
2023-01-19T09:05:46.850Z,5.49
2023-01-19T09:07:18.752Z,5.47
2023-01-19T09:08:50.262Z,5.47
2023-01-19T09:10:21.784Z,5.53
2023-01-19T09:11:53.734Z,5.52
2023-01-19T09:13:25.310Z,5.52
2023-01-19T09:14:56.841Z,5.52
2023-01-19T09:16:29.303Z,5.53
2023-01-19T09:18:01.742Z,5.55
2023-01-19T09:19:35.016Z,5.49
2023-01-19T09:21:09.283Z,5.48
2023-01-19T09:22:41.507Z,5.49
2023-01-19T09:24:13.010Z,5.56
2023-01-19T09:25:45.272Z,5.58
2023-01-19T09:27:16.825Z,5.62
2023-01-19T09:28:48.349Z,5.60
2023-01-19T09:30:20.153Z,5.58
2023-01-19T09:31:51.707Z,5.60
2023-01-19T09:33:23.327Z,5.64
2023-01-19T09:34:56.435Z,5.74
2023-01-19T09:36:37.890Z,5.80
2023-01-19T09:38:10.256Z,5.85
2023-01-19T09:39:41.919Z,5.83
2023-01-19T09:41:18.201Z,5.85
2023-01-19T09:42:53.369Z,5.83
2023-01-19T09:44:28.621Z,5.84
2023-01-19T09:46:01.177Z,5.79
2023-01-19T09:47:34.451Z,5.77
2023-01-19T09:49:11.131Z,5.76
2023-01-19T09:50:48.323Z,5.80
2023-01-19T09:52:22.387Z,5.78
2023-01-19T09:53:59.990Z,5.85
2023-01-19T09:55:31.585Z,5.85
2023-01-19T09:57:04.206Z,5.81
2023-01-19T09:58:35.702Z,5.77
2023-01-19T10:00:16.462Z,5.77
2023-01-19T10:01:59.415Z,5.67
2023-01-19T10:03:32.338Z,5.67
2023-01-19T10:05:04.902Z,5.73
2023-01-19T10:06:36.588Z,5.77
2023-01-19T10:08:16.512Z,5.82
2023-01-19T10:09:54.895Z,5.81
2023-01-19T10:11:38.101Z,5.74
2023-01-19T10:13:25.000Z,5.61
2023-01-19T10:15:01.628Z,5.52
2023-01-19T10:16:37.661Z,5.45
2023-01-19T10:18:18.877Z,5.42
2023-01-19T10:19:53.602Z,5.38
2023-01-19T10:21:27.187Z,5.36
2023-01-19T10:23:00.546Z,5.46
2023-01-19T10:24:38.491Z,5.45
2023-01-19T10:26:13.467Z,5.40
2023-01-19T10:27:46.292Z,5.54
2023-01-19T10:29:21.836Z,5.57
2023-01-19T10:30:54.463Z,5.56
2023-01-19T10:32:27.395Z,5.61
2023-01-19T10:34:00.216Z,5.58
2023-01-19T10:35:32.063Z,5.51
2023-01-19T10:37:05.269Z,5.50
2023-01-19T10:38:36.821Z,5.52
2023-01-19T10:40:19.953Z,5.50
2023-01-19T10:41:52.311Z,5.43
2023-01-19T10:43:41.492Z,5.38
2023-01-19T10:45:15.528Z,5.29
2023-01-19T10:46:47.986Z,5.26
2023-01-19T10:48:19.631Z,5.30
2023-01-19T10:49:52.113Z,5.41
2023-01-19T10:51:23.739Z,5.45
2023-01-19T10:52:56.108Z,5.62
2023-01-19T10:54:29.285Z,5.79
2023-01-19T10:56:14.342Z,5.89
2023-01-19T10:57:49.217Z,6.03
2023-01-19T10:59:31.388Z,6.02
2023-01-19T11:01:13.335Z,6.05
2023-01-19T11:02:50.088Z,6.09
2023-01-19T11:04:22.620Z,6.14
2023-01-19T11:05:54.110Z,6.16
2023-01-19T11:07:28.604Z,6.17
2023-01-19T11:09:18.112Z,6.16
2023-01-19T11:10:52.644Z,6.10
2023-01-19T11:12:25.566Z,6.01
2023-01-19T11:14:08.726Z,5.98
2023-01-19T11:15:42.368Z,6.03
2023-01-19T11:17:18.029Z,5.98
2023-01-19T11:18:51.998Z,6.03
2023-01-19T11:20:24.678Z,6.19
2023-01-19T11:22:08.795Z,6.34
2023-01-19T11:23:44.190Z,6.55
2023-01-19T11:25:27.322Z,6.70
2023-01-19T11:27:02.975Z,6.88
2023-01-19T11:28:37.575Z,6.99
2023-01-19T11:30:17.509Z,7.07
2023-01-19T11:31:50.097Z,7.11
2023-01-19T11:33:25.602Z,7.10
2023-01-19T11:34:57.905Z,7.07
2023-01-19T11:36:30.820Z,7.06
2023-01-19T11:38:05.906Z,7.07
2023-01-19T11:41:34.490Z,7.08
2023-01-19T11:43:06.059Z,7.08
2023-01-19T11:44:43.014Z,7.06
2023-01-19T11:46:15.238Z,7.11
2023-01-19T11:47:52.493Z,7.13
2023-01-19T11:49:28.579Z,7.13
2023-01-19T11:51:02.616Z,7.10
2023-01-19T11:52:43.150Z,7.11
2023-01-19T11:54:20.988Z,7.12
2023-01-19T11:55:54.803Z,7.09
2023-01-19T11:57:27.260Z,7.15
2023-01-19T11:58:58.781Z,7.15
2023-01-19T12:00:37.564Z,7.22
2023-01-19T12:02:16.231Z,7.28
2023-01-19T12:03:53.859Z,7.41
2023-01-19T12:05:29.871Z,7.53
2023-01-19T12:07:08.794Z,7.48
2023-01-19T12:08:43.335Z,7.51
2023-01-19T12:10:23.851Z,7.57
2023-01-19T12:11:57.811Z,7.49
2023-01-19T12:13:30.516Z,7.47
2023-01-19T12:15:06.821Z,7.48
2023-01-19T12:16:49.707Z,7.53
2023-01-19T12:18:27.552Z,7.61
2023-01-19T12:20:10.770Z,7.68
2023-01-19T12:21:42.424Z,7.63
2023-01-19T12:23:25.963Z,7.73
2023-01-19T12:25:01.435Z,7.67
2023-01-19T12:26:36.427Z,7.60
2023-01-19T12:28:09.923Z,7.54
2023-01-19T12:29:46.298Z,7.51
2023-01-19T12:31:19.285Z,7.50
2023-01-19T12:32:52.595Z,7.36
2023-01-19T12:34:36.756Z,7.23
2023-01-19T12:36:10.983Z,7.32
2023-01-19T12:37:43.426Z,7.45
2023-01-19T12:39:17.110Z,7.61
2023-01-19T12:40:48.647Z,7.68
2023-01-19T12:42:22.895Z,7.68
2023-01-19T12:44:19.177Z,7.61
2023-01-19T12:45:50.668Z,7.63
2023-01-19T12:47:26.711Z,7.63
2023-01-19T12:49:06.380Z,7.60
2023-01-19T12:50:38.403Z,7.57
2023-01-19T12:52:11.854Z,7.50
2023-01-19T12:53:50.242Z,7.43
2023-01-19T12:55:23.353Z,7.37
2023-01-19T12:56:58.168Z,7.34
2023-01-19T12:58:29.791Z,7.29
2023-01-19T13:00:04.768Z,7.28
2023-01-19T13:01:36.525Z,7.30
2023-01-19T13:03:30.715Z,7.37
2023-01-19T13:05:21.352Z,7.47
2023-01-19T13:07:22.679Z,7.55
2023-01-19T13:09:01.633Z,7.57
2023-01-19T13:10:57.120Z,7.55
2023-01-19T13:12:36.412Z,7.48
2023-01-19T13:14:26.224Z,7.51
2023-01-19T13:16:01.358Z,7.51
2023-01-19T13:17:35.958Z,7.54
2023-01-19T13:19:15.364Z,7.56
2023-01-19T13:20:50.985Z,7.66
2023-01-19T13:22:41.255Z,7.74
2023-01-19T13:24:17.383Z,7.87
2023-01-19T13:25:53.437Z,7.90
2023-01-19T13:27:28.490Z,7.86
2023-01-19T13:29:05.650Z,7.82
2023-01-19T13:30:39.851Z,7.68
2023-01-19T13:32:13.559Z,7.52
2023-01-19T13:33:47.972Z,7.48
2023-01-19T13:35:20.667Z,7.58
2023-01-19T13:36:54.955Z,7.74
2023-01-19T13:38:27.830Z,8.02
2023-01-19T13:40:00.000Z,8.23
2023-01-19T13:41:35.481Z,8.36
2023-01-19T13:43:14.016Z,8.43
2023-01-19T13:44:52.276Z,8.48
2023-01-19T13:46:26.324Z,8.51
2023-01-19T13:47:59.512Z,8.55
2023-01-19T13:49:33.418Z,8.53
2023-01-19T13:51:05.939Z,8.44
2023-01-19T13:52:43.216Z,8.29
2023-01-19T13:54:15.426Z,8.17
2023-01-19T13:55:48.138Z,8.08
2023-01-19T13:57:24.260Z,8.05
2023-01-19T13:59:05.443Z,8.04
2023-01-19T14:00:38.462Z,7.95
2023-01-19T14:02:13.853Z,7.89
2023-01-19T14:03:52.120Z,7.77
2023-01-19T14:05:25.597Z,7.62
2023-01-19T14:06:59.088Z,7.50
2023-01-19T14:08:33.780Z,7.43
2023-01-19T14:10:08.235Z,7.38
2023-01-19T14:11:40.178Z,7.38
2023-01-19T14:13:13.693Z,7.39
2023-01-19T14:14:49.579Z,7.38
2023-01-19T14:16:21.281Z,7.37
2023-01-19T14:18:07.910Z,7.30
2023-01-19T14:19:48.992Z,7.28
2023-01-19T14:21:20.501Z,7.27
2023-01-19T14:22:52.224Z,7.20
2023-01-19T14:24:29.557Z,7.04
2023-01-19T14:26:01.233Z,6.85
2023-01-19T14:27:32.901Z,6.73
2023-01-19T14:29:07.575Z,6.70
2023-01-19T14:30:39.328Z,6.67
2023-01-19T14:32:15.407Z,6.68
2023-01-19T14:33:48.057Z,6.63
2023-01-19T14:35:24.454Z,6.62
2023-01-19T14:36:56.013Z,6.65
2023-01-19T14:38:27.593Z,6.63
2023-01-19T14:40:01.643Z,6.61
2023-01-19T14:41:36.644Z,6.56
2023-01-19T14:43:13.135Z,6.58
2023-01-19T14:44:48.042Z,6.54
2023-01-19T14:46:20.979Z,6.54
2023-01-19T14:47:54.684Z,6.51
2023-01-19T14:49:31.435Z,6.54
2023-01-19T14:51:04.339Z,6.60
2023-01-19T14:54:15.916Z,6.67
2023-01-19T14:55:49.886Z,6.67
2023-01-19T14:57:21.375Z,6.64
2023-01-19T14:58:53.168Z,6.58
2023-01-19T15:00:24.876Z,6.63
2023-01-19T15:01:56.765Z,6.67
2023-01-19T15:03:44.727Z,6.71
2023-01-19T15:05:17.381Z,6.72
2023-01-19T15:06:48.924Z,6.78
2023-01-19T15:08:24.015Z,6.76
2023-01-19T15:09:55.515Z,6.66
2023-01-19T15:11:31.013Z,6.46
2023-01-19T15:13:02.702Z,6.33
2023-01-19T15:16:06.719Z,6.06
2023-01-19T15:17:38.304Z,6.01
2023-01-19T15:19:11.533Z,5.91
2023-01-19T15:20:43.223Z,5.90
2023-01-19T15:22:14.779Z,5.86
2023-01-19T15:23:47.449Z,5.88
2023-01-19T15:25:20.348Z,5.86
2023-01-19T15:26:53.181Z,5.80
2023-01-19T15:28:24.779Z,5.76
2023-01-19T15:29:56.589Z,5.72
2023-01-19T15:31:28.280Z,5.73
2023-01-19T15:32:59.899Z,5.71
2023-01-19T15:34:31.628Z,5.65
2023-01-19T15:36:03.279Z,5.67
2023-01-19T15:37:34.767Z,5.70
2023-01-19T15:39:06.258Z,5.72
2023-01-19T15:40:37.887Z,5.68
2023-01-19T15:42:13.007Z,5.63
2023-01-19T15:43:44.630Z,5.67
2023-01-19T15:45:31.016Z,5.64
2023-01-19T15:47:02.596Z,5.66
2023-01-19T15:48:34.206Z,5.72
2023-01-19T15:50:06.346Z,5.79
2023-01-19T15:51:38.160Z,5.86
2023-01-19T15:53:13.362Z,5.90
2023-01-19T15:54:44.869Z,5.94
2023-01-19T15:56:17.246Z,5.96
2023-01-19T15:57:50.135Z,5.94
2023-01-19T15:59:23.699Z,5.97
2023-01-19T16:00:56.500Z,5.93
2023-01-19T16:02:28.084Z,5.89
2023-01-19T16:04:01.392Z,5.93
2023-01-19T16:05:42.634Z,5.94
2023-01-19T16:07:14.964Z,5.87
2023-01-19T16:08:46.515Z,5.90
2023-01-19T16:10:18.198Z,5.86
2023-01-19T16:11:49.689Z,5.89
2023-01-19T16:13:22.658Z,5.88
2023-01-19T16:14:54.200Z,5.90
2023-01-19T16:16:27.998Z,5.90
2023-01-19T16:17:59.660Z,5.91
2023-01-19T16:19:34.391Z,5.87
2023-01-19T16:21:06.103Z,5.87
2023-01-19T16:22:38.834Z,5.86
2023-01-19T16:24:10.397Z,5.84
2023-01-19T16:25:41.978Z,5.85
2023-01-19T16:27:13.513Z,5.89
2023-01-19T16:28:46.644Z,5.93
2023-01-19T16:30:19.435Z,5.93
2023-01-19T16:31:51.048Z,5.90
2023-01-19T16:33:22.975Z,5.87
2023-01-19T16:34:54.621Z,5.86
2023-01-19T16:36:26.926Z,5.81
2023-01-19T16:37:58.479Z,5.78
2023-01-19T16:39:30.050Z,5.74
2023-01-19T16:41:01.619Z,5.66
2023-01-19T16:42:33.476Z,5.60
2023-01-19T16:44:06.996Z,5.59
2023-01-19T16:45:55.103Z,5.62
2023-01-19T16:47:26.731Z,5.69
2023-01-19T16:48:59.569Z,5.77
2023-01-19T16:50:31.146Z,5.80
2023-01-19T16:52:05.531Z,5.79
2023-01-19T16:53:37.215Z,5.74
2023-01-19T16:55:11.086Z,5.68
2023-01-19T16:56:42.651Z,5.60
2023-01-19T16:58:14.237Z,5.58
2023-01-19T16:59:47.149Z,5.55
2023-01-19T17:01:20.339Z,5.54
2023-01-19T17:02:52.090Z,5.56
2023-01-19T17:04:23.953Z,5.58
2023-01-19T17:05:55.444Z,5.60
2023-01-19T17:07:27.435Z,5.64
2023-01-19T17:08:59.320Z,5.66
2023-01-19T17:10:30.809Z,5.68
2023-01-19T17:12:02.340Z,5.67
2023-01-19T17:13:33.863Z,5.68
2023-01-19T17:15:07.573Z,5.65
2023-01-19T17:16:39.163Z,5.62
2023-01-19T17:18:13.254Z,5.62
2023-01-19T17:19:45.154Z,5.61
2023-01-19T17:21:20.036Z,5.59
2023-01-19T17:22:51.613Z,5.54
2023-01-19T17:24:23.215Z,5.51
2023-01-19T17:25:55.227Z,5.49
2023-01-19T17:27:26.739Z,5.47
2023-01-19T17:28:58.498Z,5.44
2023-01-19T17:30:31.454Z,5.38
2023-01-19T17:32:03.115Z,5.32
2023-01-19T17:33:37.041Z,5.28
2023-01-19T17:35:08.971Z,5.24
2023-01-19T17:36:41.022Z,5.24
2023-01-19T17:38:12.646Z,5.24
2023-01-19T17:39:44.115Z,5.24
2023-01-19T17:41:16.644Z,5.22
2023-01-19T17:42:48.138Z,5.24
2023-01-19T17:44:19.737Z,5.26
2023-01-19T17:45:52.560Z,5.26
2023-01-19T17:47:25.852Z,5.26
2023-01-19T17:48:58.095Z,5.26
2023-01-19T17:50:29.648Z,5.26
2023-01-19T17:52:01.193Z,5.24
2023-01-19T17:53:32.739Z,5.24
2023-01-19T17:55:04.542Z,5.22
2023-01-19T17:56:38.451Z,5.17
2023-01-19T17:58:09.936Z,5.13
2023-01-19T17:59:43.770Z,5.09
2023-01-19T18:01:17.504Z,5.07
2023-01-19T18:02:50.536Z,5.06
2023-01-19T18:04:22.160Z,5.07
2023-01-19T18:05:54.037Z,5.08
2023-01-19T18:07:25.545Z,5.09
2023-01-19T18:08:58.463Z,5.11
2023-01-19T18:10:30.020Z,5.13
2023-01-19T18:12:04.432Z,5.12
2023-01-19T18:13:36.550Z,5.14
2023-01-19T18:15:08.671Z,5.13
2023-01-19T18:16:41.558Z,5.12
2023-01-19T18:18:13.141Z,5.12
2023-01-19T18:19:44.722Z,5.14
2023-01-19T18:21:16.824Z,5.15
2023-01-19T18:22:48.291Z,5.10
2023-01-19T18:24:19.827Z,5.08
2023-01-19T18:25:57.336Z,5.07
2023-01-19T18:27:29.396Z,5.07
2023-01-19T18:29:02.002Z,5.06
2023-01-19T18:30:34.055Z,5.05
2023-01-19T18:32:07.027Z,5.05
2023-01-19T18:33:38.964Z,5.05
2023-01-19T18:35:10.469Z,5.07
2023-01-19T18:36:42.008Z,5.07
2023-01-19T18:38:13.804Z,5.08
2023-01-19T18:39:45.287Z,5.10
2023-01-19T18:41:17.647Z,5.09
2023-01-19T18:42:49.396Z,5.09
2023-01-19T18:44:21.966Z,5.09
2023-01-19T18:45:53.427Z,5.09
2023-01-19T18:47:27.270Z,5.09
2023-01-19T18:48:58.818Z,5.06
2023-01-19T18:50:30.488Z,5.07
2023-01-19T18:52:03.792Z,5.06
2023-01-19T18:53:37.713Z,5.03
2023-01-19T18:55:09.419Z,5.06
2023-01-19T18:56:40.919Z,5.08
2023-01-19T18:58:12.527Z,5.09
2023-01-19T18:59:44.050Z,5.08
2023-01-19T19:01:20.304Z,5.10
2023-01-19T19:02:55.557Z,5.13
2023-01-19T19:04:27.131Z,5.12
2023-01-19T19:06:01.738Z,5.12
2023-01-19T19:07:33.647Z,5.11
2023-01-19T19:09:05.350Z,5.11
2023-01-19T19:10:37.248Z,5.12
2023-01-19T19:12:09.752Z,5.12
2023-01-19T19:13:41.396Z,5.13
2023-01-19T19:15:13.926Z,5.14
2023-01-19T19:16:45.662Z,5.13
2023-01-19T19:18:18.545Z,5.14
2023-01-19T19:19:50.165Z,5.14
2023-01-19T19:21:22.579Z,5.12
2023-01-19T19:22:54.437Z,5.13
2023-01-19T19:24:26.006Z,5.11
2023-01-19T19:26:01.172Z,5.08
2023-01-19T19:27:33.284Z,5.07
2023-01-19T19:29:05.228Z,5.04
2023-01-19T19:30:38.906Z,5.04
2023-01-19T19:32:10.614Z,5.02
2023-01-19T19:33:43.727Z,5.03
2023-01-19T19:35:18.632Z,5.04
2023-01-19T19:36:50.986Z,5.03
2023-01-19T19:38:22.572Z,5.02
2023-01-19T19:39:55.739Z,5.00
2023-01-19T19:41:28.005Z,5.01
2023-01-19T19:42:59.959Z,5.00
2023-01-19T19:44:35.577Z,5.00
2023-01-19T19:46:08.004Z,4.97
2023-01-19T19:47:43.018Z,4.96
2023-01-19T19:49:23.625Z,4.93
2023-01-19T19:50:58.634Z,4.91
2023-01-19T19:52:32.029Z,4.89
2023-01-19T19:54:03.531Z,4.90
2023-01-19T19:55:35.486Z,4.85
2023-01-19T19:57:07.051Z,4.86
2023-01-19T19:58:39.036Z,4.84
2023-01-19T20:00:14.240Z,4.84
2023-01-19T20:01:48.071Z,4.84
2023-01-19T20:03:20.257Z,4.82
2023-01-19T20:04:53.558Z,4.79
2023-01-19T20:06:26.324Z,4.75
2023-01-19T20:07:59.025Z,4.75
2023-01-19T20:09:30.873Z,4.74
2023-01-19T20:11:06.923Z,4.75
2023-01-19T20:12:47.981Z,4.74
2023-01-19T20:14:19.741Z,4.73
2023-01-19T20:15:54.294Z,4.72
2023-01-19T20:17:25.852Z,4.69
2023-01-19T20:18:57.581Z,4.66
2023-01-19T20:20:38.230Z,4.65
2023-01-19T20:22:09.722Z,4.65
2023-01-19T20:23:44.815Z,4.64
2023-01-19T20:25:16.397Z,4.64
2023-01-19T20:26:49.546Z,4.63
2023-01-19T20:28:21.026Z,4.64
2023-01-19T20:29:58.017Z,4.60
2023-01-19T20:31:44.162Z,4.60
2023-01-19T20:33:15.645Z,4.58
2023-01-19T20:34:47.141Z,4.57
2023-01-19T20:36:28.833Z,4.55
2023-01-19T20:38:00.467Z,4.50
2023-01-19T20:39:34.557Z,4.49
2023-01-19T20:41:07.393Z,4.49
2023-01-19T20:42:41.283Z,4.48
2023-01-19T20:44:14.728Z,4.49
2023-01-19T20:45:49.654Z,4.51
2023-01-19T20:47:23.652Z,4.51
2023-01-19T20:49:01.140Z,4.52
2023-01-19T20:50:32.635Z,4.54
2023-01-19T20:52:12.426Z,4.50
2023-01-19T20:53:44.427Z,4.49